Terminal Aerodrome Forecast
Issued by NWS

Home | Current Version | Previous Version | Graphics & Text | Print | Product List | Glossary On
Versions: 1 2 3 4 5 6 7 8 9 10 11 12 13 14 15 16 17
000
FTUS43 KBIS 221139
TAFMOT
TAF
KMOT 221139Z 2212/2312 34005KT P6SM BKN070
     FM221400 34010KT P6SM VCSH BKN070
     FM221800 35016G24KT P6SM VCSH BKN045
     FM230100 34008KT P6SM BKN070=

USA.gov is the U.S. government's official web portal to all federal, state and local government web resources and services.